sensor_id;sensor_type;location;lat;lon;timestamp;P1;durP1;ratioP1;P2;durP2;ratioP2
4971;SDS011;2501;51.214;6.768;2024-03-29T00:01:05;6.60;;;1.38;;
4971;SDS011;2501;51.214;6.768;2024-03-29T00:03:31;3.85;;;1.20;;
4971;SDS011;2501;51.214;6.768;2024-03-29T00:05:56;4.57;;;1.20;;
4971;SDS011;2501;51.214;6.768;2024-03-29T00:08:22;6.00;;;1.30;;
4971;SDS011;2501;51.214;6.768;2024-03-29T00:10:48;3.10;;;1.10;;
4971;SDS011;2501;51.214;6.768;2024-03-29T00:13:14;6.40;;;1.63;;
4971;SDS011;2501;51.214;6.768;2024-03-29T00:15:40;3.97;;;1.40;;
4971;SDS011;2501;51.214;6.768;2024-03-29T00:18:08;4.40;;;1.40;;
4971;SDS011;2501;51.214;6.768;2024-03-29T00:20:34;3.80;;;1.30;;
4971;SDS011;2501;51.214;6.768;2024-03-29T00:23:00;3.17;;;0.90;;
4971;SDS011;2501;51.214;6.768;2024-03-29T00:25:26;5.10;;;1.30;;
4971;SDS011;2501;51.214;6.768;2024-03-29T00:27:51;4.70;;;1.40;;
4971;SDS011;2501;51.214;6.768;2024-03-29T00:30:17;7.15;;;1.60;;
4971;SDS011;2501;51.214;6.768;2024-03-29T00:32:43;5.53;;;1.58;;
4971;SDS011;2501;51.214;6.768;2024-03-29T00:35:11;9.40;;;1.60;;
4971;SDS011;2501;51.214;6.768;2024-03-29T00:37:38;6.20;;;1.33;;
4971;SDS011;2501;51.214;6.768;2024-03-29T00:40:04;7.22;;;1.52;;
4971;SDS011;2501;51.214;6.768;2024-03-29T00:42:31;3.03;;;1.20;;
4971;SDS011;2501;51.214;6.768;2024-03-29T00:44:57;4.45;;;1.35;;
4971;SDS011;2501;51.214;6.768;2024-03-29T00:47:22;6.67;;;1.97;;
4971;SDS011;2501;51.214;6.768;2024-03-29T00:49:48;5.10;;;2.60;;
4971;SDS011;2501;51.214;6.768;2024-03-29T00:52:16;7.30;;;3.33;;
4971;SDS011;2501;51.214;6.768;2024-03-29T00:54:42;11.17;;;3.50;;
4971;SDS011;2501;51.214;6.768;2024-03-29T00:57:08;10.88;;;4.00;;
4971;SDS011;2501;51.214;6.768;2024-03-29T00:59:34;7.27;;;3.57;;
4971;SDS011;2501;51.214;6.768;2024-03-29T01:02:00;8.75;;;3.00;;
4971;SDS011;2501;51.214;6.768;2024-03-29T01:04:25;9.45;;;3.30;;
4971;SDS011;2501;51.214;6.768;2024-03-29T01:06:51;5.75;;;2.38;;
4971;SDS011;2501;51.214;6.768;2024-03-29T01:09:20;8.48;;;2.80;;
4971;SDS011;2501;51.214;6.768;2024-03-29T01:11:46;6.40;;;1.90;;
4971;SDS011;2501;51.214;6.768;2024-03-29T01:14:11;4.00;;;1.90;;
4971;SDS011;2501;51.214;6.768;2024-03-29T01:16:37;3.92;;;1.27;;
4971;SDS011;2501;51.214;6.768;2024-03-29T01:19:03;7.27;;;2.00;;
4971;SDS011;2501;51.214;6.768;2024-03-29T01:21:29;8.38;;;4.13;;
4971;SDS011;2501;51.214;6.768;2024-03-29T01:23:54;2.77;;;1.50;;
4971;SDS011;2501;51.214;6.768;2024-03-29T01:26:23;3.03;;;1.60;;
4971;SDS011;2501;51.214;6.768;2024-03-29T01:28:49;3.35;;;1.50;;
4971;SDS011;2501;51.214;6.768;2024-03-29T01:31:14;4.80;;;1.90;;
4971;SDS011;2501;51.214;6.768;2024-03-29T01:33:40;6.90;;;2.90;;
4971;SDS011;2501;51.214;6.768;2024-03-29T01:36:06;9.00;;;3.45;;
4971;SDS011;2501;51.214;6.768;2024-03-29T01:38:33;3.28;;;1.60;;
4971;SDS011;2501;51.214;6.768;2024-03-29T01:40:59;2.28;;;1.75;;
4971;SDS011;2501;51.214;6.768;2024-03-29T01:43:27;5.10;;;2.55;;
4971;SDS011;2501;51.214;6.768;2024-03-29T01:45:53;7.63;;;2.60;;
4971;SDS011;2501;51.214;6.768;2024-03-29T01:48:20;5.00;;;2.20;;
4971;SDS011;2501;51.214;6.768;2024-03-29T01:50:47;6.10;;;1.90;;
4971;SDS011;2501;51.214;6.768;2024-03-29T01:53:14;5.67;;;1.97;;
4971;SDS011;2501;51.214;6.768;2024-03-29T01:55:42;5.13;;;1.70;;
4971;SDS011;2501;51.214;6.768;2024-03-29T01:58:08;4.50;;;2.10;;
4971;SDS011;2501;51.214;6.768;2024-03-29T02:00:38;9.52;;;1.73;;
4971;SDS011;2501;51.214;6.768;2024-03-29T02:03:06;3.42;;;1.27;;
4971;SDS011;2501;51.214;6.768;2024-03-29T02:05:32;7.03;;;1.95;;
4971;SDS011;2501;51.214;6.768;2024-03-29T02:07:59;2.53;;;1.30;;
4971;SDS011;2501;51.214;6.768;2024-03-29T02:10:24;4.82;;;1.40;;
4971;SDS011;2501;51.214;6.768;2024-03-29T02:12:50;3.17;;;1.40;;
4971;SDS011;2501;51.214;6.768;2024-03-29T02:15:16;1.60;;;1.23;;
4971;SDS011;2501;51.214;6.768;2024-03-29T02:17:44;3.95;;;1.50;;
4971;SDS011;2501;51.214;6.768;2024-03-29T02:20:10;1.75;;;1.27;;
4971;SDS011;2501;51.214;6.768;2024-03-29T02:22:36;2.60;;;1.80;;
4971;SDS011;2501;51.214;6.768;2024-03-29T02:25:14;3.40;;;1.50;;
4971;SDS011;2501;51.214;6.768;2024-03-29T02:27:40;4.00;;;1.60;;
4971;SDS011;2501;51.214;6.768;2024-03-29T02:30:07;2.10;;;1.50;;
4971;SDS011;2501;51.214;6.768;2024-03-29T02:32:33;3.53;;;1.40;;
4971;SDS011;2501;51.214;6.768;2024-03-29T02:35:05;7.22;;;1.95;;
4971;SDS011;2501;51.214;6.768;2024-03-29T02:37:32;5.70;;;2.10;;
4971;SDS011;2501;51.214;6.768;2024-03-29T02:39:57;4.22;;;2.00;;
4971;SDS011;2501;51.214;6.768;2024-03-29T02:42:26;6.38;;;1.70;;
4971;SDS011;2501;51.214;6.768;2024-03-29T02:44:52;3.08;;;2.17;;
4971;SDS011;2501;51.214;6.768;2024-03-29T02:47:18;9.30;;;4.27;;
4971;SDS011;2501;51.214;6.768;2024-03-29T02:49:43;7.45;;;3.75;;
4971;SDS011;2501;51.214;6.768;2024-03-29T02:52:09;5.82;;;2.08;;
4971;SDS011;2501;51.214;6.768;2024-03-29T02:54:35;4.95;;;1.80;;
4971;SDS011;2501;51.214;6.768;2024-03-29T02:57:01;3.45;;;2.10;;
4971;SDS011;2501;51.214;6.768;2024-03-29T02:59:29;4.35;;;2.00;;
4971;SDS011;2501;51.214;6.768;2024-03-29T03:01:55;3.85;;;2.92;;
4971;SDS011;2501;51.214;6.768;2024-03-29T03:04:21;4.50;;;3.27;;
4971;SDS011;2501;51.214;6.768;2024-03-29T03:06:47;2.60;;;1.92;;
4971;SDS011;2501;51.214;6.768;2024-03-29T03:09:13;2.67;;;1.30;;
4971;SDS011;2501;51.214;6.768;2024-03-29T03:11:54;2.85;;;1.60;;
4971;SDS011;2501;51.214;6.768;2024-03-29T03:14:19;2.00;;;1.43;;
4971;SDS011;2501;51.214;6.768;2024-03-29T03:16:48;5.45;;;1.50;;
4971;SDS011;2501;51.214;6.768;2024-03-29T03:19:14;3.83;;;1.20;;
4971;SDS011;2501;51.214;6.768;2024-03-29T03:21:39;3.53;;;1.37;;
4971;SDS011;2501;51.214;6.768;2024-03-29T03:24:05;1.73;;;1.10;;
4971;SDS011;2501;51.214;6.768;2024-03-29T03:26:32;3.55;;;1.23;;
4971;SDS011;2501;51.214;6.768;2024-03-29T03:28:57;3.20;;;1.10;;
4971;SDS011;2501;51.214;6.768;2024-03-29T03:31:23;1.60;;;0.90;;
4971;SDS011;2501;51.214;6.768;2024-03-29T03:33:52;6.80;;;1.50;;
4971;SDS011;2501;51.214;6.768;2024-03-29T03:36:17;5.82;;;1.42;;
4971;SDS011;2501;51.214;6.768;2024-03-29T03:38:43;3.80;;;1.30;;
4971;SDS011;2501;51.214;6.768;2024-03-29T03:41:09;1.95;;;1.10;;
4971;SDS011;2501;51.214;6.768;2024-03-29T03:43:35;6.70;;;1.10;;
4971;SDS011;2501;51.214;6.768;2024-03-29T03:46:01;6.30;;;1.33;;
4971;SDS011;2501;51.214;6.768;2024-03-29T03:48:27;3.53;;;1.40;;
4971;SDS011;2501;51.214;6.768;2024-03-29T03:50:56;5.13;;;1.00;;
4971;SDS011;2501;51.214;6.768;2024-03-29T03:53:22;5.20;;;1.20;;
4971;SDS011;2501;51.214;6.768;2024-03-29T03:55:48;4.45;;;1.40;;
4971;SDS011;2501;51.214;6.768;2024-03-29T03:58:13;2.03;;;1.30;;
4971;SDS011;2501;51.214;6.768;2024-03-29T04:00:39;3.90;;;1.10;;
4971;SDS011;2501;51.214;6.768;2024-03-29T04:03:05;2.77;;;1.10;;
4971;SDS011;2501;51.214;6.768;2024-03-29T04:05:31;3.50;;;0.90;;
4971;SDS011;2501;51.214;6.768;2024-03-29T04:07:59;3.00;;;1.30;;
4971;SDS011;2501;51.214;6.768;2024-03-29T04:10:25;3.60;;;1.15;;
4971;SDS011;2501;51.214;6.768;2024-03-29T04:12:51;2.15;;;1.35;;
4971;SDS011;2501;51.214;6.768;2024-03-29T04:15:17;2.40;;;1.30;;
4971;SDS011;2501;51.214;6.768;2024-03-29T04:17:43;3.33;;;1.10;;
4971;SDS011;2501;51.214;6.768;2024-03-29T04:20:09;1.33;;;1.10;;
4971;SDS011;2501;51.214;6.768;2024-03-29T04:22:35;3.75;;;1.10;;
4971;SDS011;2501;51.214;6.768;2024-03-29T04:25:04;3.33;;;1.30;;
4971;SDS011;2501;51.214;6.768;2024-03-29T04:27:30;5.03;;;1.17;;
4971;SDS011;2501;51.214;6.768;2024-03-29T04:29:55;3.30;;;1.40;;
4971;SDS011;2501;51.214;6.768;2024-03-29T04:32:21;5.38;;;1.40;;
4971;SDS011;2501;51.214;6.768;2024-03-29T04:34:47;1.40;;;1.15;;
4971;SDS011;2501;51.214;6.768;2024-03-29T04:37:13;2.05;;;0.88;;
4971;SDS011;2501;51.214;6.768;2024-03-29T04:39:39;2.87;;;1.20;;
4971;SDS011;2501;51.214;6.768;2024-03-29T04:42:08;6.88;;;1.30;;
4971;SDS011;2501;51.214;6.768;2024-03-29T04:44:33;4.22;;;1.77;;
4971;SDS011;2501;51.214;6.768;2024-03-29T04:46:59;5.37;;;1.30;;
4971;SDS011;2501;51.214;6.768;2024-03-29T04:49:25;4.28;;;1.42;;
4971;SDS011;2501;51.214;6.768;2024-03-29T04:51:53;3.83;;;1.60;;
4971;SDS011;2501;51.214;6.768;2024-03-29T04:54:19;2.10;;;1.03;;
4971;SDS011;2501;51.214;6.768;2024-03-29T04:56:45;2.60;;;1.30;;
4971;SDS011;2501;51.214;6.768;2024-03-29T04:59:13;3.80;;;1.77;;
4971;SDS011;2501;51.214;6.768;2024-03-29T05:01:39;2.40;;;1.50;;
4971;SDS011;2501;51.214;6.768;2024-03-29T05:04:05;4.70;;;1.47;;
4971;SDS011;2501;51.214;6.768;2024-03-29T05:06:31;3.22;;;1.60;;
4971;SDS011;2501;51.214;6.768;2024-03-29T05:08:57;4.63;;;1.40;;
4971;SDS011;2501;51.214;6.768;2024-03-29T05:11:23;3.70;;;1.30;;
4971;SDS011;2501;51.214;6.768;2024-03-29T05:13:49;2.60;;;1.40;;
4971;SDS011;2501;51.214;6.768;2024-03-29T05:16:17;6.47;;;1.50;;
4971;SDS011;2501;51.214;6.768;2024-03-29T05:18:43;5.75;;;1.40;;
4971;SDS011;2501;51.214;6.768;2024-03-29T05:21:09;3.33;;;1.60;;
4971;SDS011;2501;51.214;6.768;2024-03-29T05:23:34;4.47;;;1.60;;
4971;SDS011;2501;51.214;6.768;2024-03-29T05:26:00;5.23;;;1.30;;
4971;SDS011;2501;51.214;6.768;2024-03-29T05:28:27;4.03;;;2.08;;
4971;SDS011;2501;51.214;6.768;2024-03-29T05:30:53;6.07;;;2.08;;
4971;SDS011;2501;51.214;6.768;2024-03-29T05:33:21;4.18;;;1.33;;
4971;SDS011;2501;51.214;6.768;2024-03-29T05:35:47;6.30;;;1.60;;
4971;SDS011;2501;51.214;6.768;2024-03-29T05:38:13;6.57;;;1.50;;
4971;SDS011;2501;51.214;6.768;2024-03-29T05:40:39;2.33;;;1.50;;
4971;SDS011;2501;51.214;6.768;2024-03-29T05:43:05;1.83;;;1.50;;
4971;SDS011;2501;51.214;6.768;2024-03-29T05:45:31;4.80;;;1.30;;
4971;SDS011;2501;51.214;6.768;2024-03-29T05:47:57;4.20;;;1.50;;
4971;SDS011;2501;51.214;6.768;2024-03-29T05:50:26;3.60;;;1.50;;
4971;SDS011;2501;51.214;6.768;2024-03-29T05:52:52;5.63;;;1.65;;
4971;SDS011;2501;51.214;6.768;2024-03-29T05:55:18;2.40;;;1.58;;
4971;SDS011;2501;51.214;6.768;2024-03-29T05:57:44;5.27;;;1.80;;
4971;SDS011;2501;51.214;6.768;2024-03-29T06:00:10;3.67;;;1.13;;
4971;SDS011;2501;51.214;6.768;2024-03-29T06:02:38;3.30;;;1.40;;
4971;SDS011;2501;51.214;6.768;2024-03-29T06:05:05;3.07;;;1.10;;
4971;SDS011;2501;51.214;6.768;2024-03-29T06:07:34;3.10;;;1.60;;
4971;SDS011;2501;51.214;6.768;2024-03-29T06:10:00;4.13;;;1.60;;
4971;SDS011;2501;51.214;6.768;2024-03-29T06:12:26;4.20;;;1.50;;
4971;SDS011;2501;51.214;6.768;2024-03-29T06:14:52;4.45;;;1.50;;
4971;SDS011;2501;51.214;6.768;2024-03-29T06:17:33;2.97;;;1.80;;
4971;SDS011;2501;51.214;6.768;2024-03-29T06:19:59;4.40;;;1.70;;
4971;SDS011;2501;51.214;6.768;2024-03-29T06:22:25;3.93;;;1.60;;
4971;SDS011;2501;51.214;6.768;2024-03-29T06:24:54;3.97;;;1.40;;
4971;SDS011;2501;51.214;6.768;2024-03-29T06:27:19;3.53;;;1.42;;
4971;SDS011;2501;51.214;6.768;2024-03-29T06:29:46;3.22;;;1.35;;
4971;SDS011;2501;51.214;6.768;2024-03-29T06:32:12;3.87;;;1.20;;
4971;SDS011;2501;51.214;6.768;2024-03-29T06:34:37;3.53;;;1.40;;
4971;SDS011;2501;51.214;6.768;2024-03-29T06:37:03;5.40;;;1.60;;
4971;SDS011;2501;51.214;6.768;2024-03-29T06:39:29;2.63;;;1.58;;
4971;SDS011;2501;51.214;6.768;2024-03-29T06:41:57;3.40;;;1.70;;
4971;SDS011;2501;51.214;6.768;2024-03-29T06:44:23;3.88;;;1.45;;
4971;SDS011;2501;51.214;6.768;2024-03-29T06:46:49;3.80;;;1.70;;
4971;SDS011;2501;51.214;6.768;2024-03-29T06:49:15;3.35;;;1.30;;
4971;SDS011;2501;51.214;6.768;2024-03-29T06:51:41;3.85;;;1.73;;
4971;SDS011;2501;51.214;6.768;2024-03-29T06:54:07;5.53;;;2.40;;
4971;SDS011;2501;51.214;6.768;2024-03-29T06:56:33;4.90;;;2.00;;
4971;SDS011;2501;51.214;6.768;2024-03-29T06:59:01;2.42;;;1.60;;
4971;SDS011;2501;51.214;6.768;2024-03-29T07:01:27;4.35;;;2.20;;
4971;SDS011;2501;51.214;6.768;2024-03-29T07:03:53;3.17;;;1.63;;
4971;SDS011;2501;51.214;6.768;2024-03-29T07:06:19;3.28;;;1.80;;
4971;SDS011;2501;51.214;6.768;2024-03-29T07:08:45;2.60;;;1.95;;
4971;SDS011;2501;51.214;6.768;2024-03-29T07:11:11;4.30;;;2.30;;
4971;SDS011;2501;51.214;6.768;2024-03-29T07:13:37;3.10;;;1.90;;
4971;SDS011;2501;51.214;6.768;2024-03-29T07:16:06;6.40;;;2.20;;
4971;SDS011;2501;51.214;6.768;2024-03-29T07:18:32;5.63;;;2.28;;
4971;SDS011;2501;51.214;6.768;2024-03-29T07:20:58;5.70;;;2.00;;
4971;SDS011;2501;51.214;6.768;2024-03-29T07:23:24;3.20;;;1.70;;
4971;SDS011;2501;51.214;6.768;2024-03-29T07:25:57;3.75;;;1.75;;
4971;SDS011;2501;51.214;6.768;2024-03-29T07:28:23;3.50;;;2.28;;
4971;SDS011;2501;51.214;6.768;2024-03-29T07:30:49;6.53;;;2.90;;
4971;SDS011;2501;51.214;6.768;2024-03-29T07:33:18;3.30;;;1.83;;
4971;SDS011;2501;51.214;6.768;2024-03-29T07:35:43;3.10;;;1.63;;
4971;SDS011;2501;51.214;6.768;2024-03-29T07:38:09;2.17;;;1.98;;
4971;SDS011;2501;51.214;6.768;2024-03-29T07:40:35;3.97;;;2.30;;
4971;SDS011;2501;51.214;6.768;2024-03-29T07:43:01;6.57;;;2.20;;
4971;SDS011;2501;51.214;6.768;2024-03-29T07:45:27;5.60;;;2.65;;
4971;SDS011;2501;51.214;6.768;2024-03-29T07:47:53;6.00;;;2.20;;
4971;SDS011;2501;51.214;6.768;2024-03-29T07:50:21;3.35;;;2.05;;
4971;SDS011;2501;51.214;6.768;2024-03-29T07:52:47;4.50;;;1.77;;
4971;SDS011;2501;51.214;6.768;2024-03-29T07:55:13;4.10;;;1.70;;
4971;SDS011;2501;51.214;6.768;2024-03-29T07:57:40;4.85;;;1.60;;
4971;SDS011;2501;51.214;6.768;2024-03-29T08:00:07;4.95;;;2.40;;
4971;SDS011;2501;51.214;6.768;2024-03-29T08:02:33;2.80;;;2.20;;
4971;SDS011;2501;51.214;6.768;2024-03-29T08:04:59;2.50;;;2.10;;
4971;SDS011;2501;51.214;6.768;2024-03-29T08:07:28;6.22;;;2.58;;
4971;SDS011;2501;51.214;6.768;2024-03-29T08:09:57;4.18;;;2.80;;
4971;SDS011;2501;51.214;6.768;2024-03-29T08:12:24;2.80;;;1.90;;
4971;SDS011;2501;51.214;6.768;2024-03-29T08:14:50;6.33;;;2.50;;
4971;SDS011;2501;51.214;6.768;2024-03-29T08:17:16;2.28;;;2.00;;
4971;SDS011;2501;51.214;6.768;2024-03-29T08:19:42;4.40;;;2.30;;
4971;SDS011;2501;51.214;6.768;2024-03-29T08:22:07;9.82;;;2.80;;
4971;SDS011;2501;51.214;6.768;2024-03-29T08:24:37;7.90;;;2.50;;
4971;SDS011;2501;51.214;6.768;2024-03-29T08:27:03;2.22;;;2.03;;
4971;SDS011;2501;51.214;6.768;2024-03-29T08:29:29;5.00;;;2.03;;
4971;SDS011;2501;51.214;6.768;2024-03-29T08:31:55;5.50;;;2.22;;
4971;SDS011;2501;51.214;6.768;2024-03-29T08:34:20;13.27;;;3.90;;
4971;SDS011;2501;51.214;6.768;2024-03-29T08:36:46;8.20;;;3.05;;
4971;SDS011;2501;51.214;6.768;2024-03-29T08:39:12;2.90;;;1.85;;
4971;SDS011;2501;51.214;6.768;2024-03-29T08:41:41;2.83;;;1.97;;
4971;SDS011;2501;51.214;6.768;2024-03-29T08:44:06;4.43;;;2.85;;
4971;SDS011;2501;51.214;6.768;2024-03-29T08:46:32;10.18;;;4.93;;
4971;SDS011;2501;51.214;6.768;2024-03-29T08:48:58;13.07;;;4.07;;
4971;SDS011;2501;51.214;6.768;2024-03-29T08:51:24;4.28;;;1.98;;
4971;SDS011;2501;51.214;6.768;2024-03-29T08:53:50;7.57;;;2.47;;
4971;SDS011;2501;51.214;6.768;2024-03-29T08:56:16;8.93;;;2.38;;
4971;SDS011;2501;51.214;6.768;2024-03-29T08:58:44;3.17;;;1.98;;
4971;SDS011;2501;51.214;6.768;2024-03-29T09:01:12;14.80;;;5.45;;
4971;SDS011;2501;51.214;6.768;2024-03-29T09:03:38;17.10;;;4.68;;
4971;SDS011;2501;51.214;6.768;2024-03-29T09:06:04;13.50;;;5.18;;
4971;SDS011;2501;51.214;6.768;2024-03-29T09:08:30;16.87;;;5.03;;
4971;SDS011;2501;51.214;6.768;2024-03-29T09:10:56;8.35;;;4.20;;
4971;SDS011;2501;51.214;6.768;2024-03-29T09:13:22;7.32;;;3.10;;
4971;SDS011;2501;51.214;6.768;2024-03-29T09:15:53;5.70;;;2.70;;
4971;SDS011;2501;51.214;6.768;2024-03-29T09:18:19;4.38;;;2.30;;
4971;SDS011;2501;51.214;6.768;2024-03-29T09:20:46;2.80;;;2.17;;
4971;SDS011;2501;51.214;6.768;2024-03-29T09:23:12;9.10;;;5.30;;
4971;SDS011;2501;51.214;6.768;2024-03-29T09:25:39;2.85;;;1.80;;
4971;SDS011;2501;51.214;6.768;2024-03-29T09:28:05;2.10;;;1.90;;
4971;SDS011;2501;51.214;6.768;2024-03-29T09:30:31;2.47;;;1.60;;
4971;SDS011;2501;51.214;6.768;2024-03-29T09:33:00;3.47;;;1.80;;
4971;SDS011;2501;51.214;6.768;2024-03-29T09:35:26;3.08;;;1.98;;
4971;SDS011;2501;51.214;6.768;2024-03-29T09:37:52;3.40;;;1.40;;
4971;SDS011;2501;51.214;6.768;2024-03-29T09:40:18;1.52;;;1.20;;
4971;SDS011;2501;51.214;6.768;2024-03-29T09:42:44;3.30;;;1.30;;
4971;SDS011;2501;51.214;6.768;2024-03-29T09:45:10;2.15;;;1.40;;
4971;SDS011;2501;51.214;6.768;2024-03-29T09:47:37;3.17;;;1.80;;
4971;SDS011;2501;51.214;6.768;2024-03-29T09:50:06;3.90;;;1.30;;
4971;SDS011;2501;51.214;6.768;2024-03-29T09:52:33;2.20;;;1.63;;
4971;SDS011;2501;51.214;6.768;2024-03-29T09:55:00;1.60;;;1.50;;
4971;SDS011;2501;51.214;6.768;2024-03-29T09:57:27;2.90;;;1.60;;
4971;SDS011;2501;51.214;6.768;2024-03-29T09:59:53;3.67;;;1.50;;
4971;SDS011;2501;51.214;6.768;2024-03-29T10:02:19;1.40;;;1.30;;
4971;SDS011;2501;51.214;6.768;2024-03-29T10:04:46;2.57;;;1.67;;
4971;SDS011;2501;51.214;6.768;2024-03-29T10:07:19;1.30;;;1.20;;
4971;SDS011;2501;51.214;6.768;2024-03-29T10:09:47;1.83;;;1.60;;
4971;SDS011;2501;51.214;6.768;2024-03-29T10:12:13;1.33;;;1.13;;
4971;SDS011;2501;51.214;6.768;2024-03-29T10:14:45;1.60;;;1.38;;
4971;SDS011;2501;51.214;6.768;2024-03-29T10:17:11;1.80;;;1.13;;
4971;SDS011;2501;51.214;6.768;2024-03-29T10:19:37;3.90;;;1.15;;
4971;SDS011;2501;51.214;6.768;2024-03-29T10:22:06;2.40;;;1.70;;
4971;SDS011;2501;51.214;6.768;2024-03-29T10:24:36;4.10;;;1.60;;
4971;SDS011;2501;51.214;6.768;2024-03-29T10:27:02;2.35;;;0.90;;
4971;SDS011;2501;51.214;6.768;2024-03-29T10:29:28;0.90;;;0.80;;
4971;SDS011;2501;51.214;6.768;2024-03-29T10:31:57;1.30;;;0.88;;
4971;SDS011;2501;51.214;6.768;2024-03-29T10:34:26;1.50;;;1.00;;
4971;SDS011;2501;51.214;6.768;2024-03-29T10:36:52;2.60;;;1.00;;
4971;SDS011;2501;51.214;6.768;2024-03-29T10:39:18;1.80;;;1.65;;
4971;SDS011;2501;51.214;6.768;2024-03-29T10:41:47;2.00;;;0.90;;
4971;SDS011;2501;51.214;6.768;2024-03-29T10:44:15;1.30;;;0.90;;
4971;SDS011;2501;51.214;6.768;2024-03-29T10:46:41;1.80;;;1.00;;
4971;SDS011;2501;51.214;6.768;2024-03-29T10:49:07;1.50;;;1.03;;
4971;SDS011;2501;51.214;6.768;2024-03-29T10:51:35;1.95;;;0.93;;
4971;SDS011;2501;51.214;6.768;2024-03-29T10:54:03;2.30;;;0.70;;
4971;SDS011;2501;51.214;6.768;2024-03-29T10:56:30;1.20;;;0.80;;
4971;SDS011;2501;51.214;6.768;2024-03-29T10:59:01;1.50;;;0.80;;
4971;SDS011;2501;51.214;6.768;2024-03-29T11:01:31;1.20;;;0.82;;
4971;SDS011;2501;51.214;6.768;2024-03-29T11:03:58;1.30;;;0.80;;
4971;SDS011;2501;51.214;6.768;2024-03-29T11:06:31;0.98;;;0.88;;
4971;SDS011;2501;51.214;6.768;2024-03-29T11:08:59;1.30;;;0.90;;
4971;SDS011;2501;51.214;6.768;2024-03-29T11:11:27;2.47;;;0.90;;
4971;SDS011;2501;51.214;6.768;2024-03-29T11:13:57;2.10;;;0.70;;
4971;SDS011;2501;51.214;6.768;2024-03-29T11:16:32;1.30;;;1.00;;
4971;SDS011;2501;51.214;6.768;2024-03-29T11:18:58;1.58;;;0.68;;
4971;SDS011;2501;51.214;6.768;2024-03-29T11:21:24;1.60;;;0.90;;
4971;SDS011;2501;51.214;6.768;2024-03-29T11:23:52;1.88;;;0.93;;
4971;SDS011;2501;51.214;6.768;2024-03-29T11:26:18;2.30;;;0.80;;
4971;SDS011;2501;51.214;6.768;2024-03-29T11:28:47;1.80;;;0.90;;
4971;SDS011;2501;51.214;6.768;2024-03-29T11:31:17;1.10;;;1.00;;
4971;SDS011;2501;51.214;6.768;2024-03-29T11:33:46;2.88;;;1.35;;
4971;SDS011;2501;51.214;6.768;2024-03-29T11:36:15;1.17;;;1.08;;
4971;SDS011;2501;51.214;6.768;2024-03-29T11:38:42;3.10;;;1.40;;
4971;SDS011;2501;51.214;6.768;2024-03-29T11:41:11;2.15;;;1.55;;
4971;SDS011;2501;51.214;6.768;2024-03-29T11:43:37;5.45;;;2.20;;
4971;SDS011;2501;51.214;6.768;2024-03-29T11:46:05;2.30;;;1.70;;
4971;SDS011;2501;51.214;6.768;2024-03-29T11:48:34;1.42;;;1.20;;
4971;SDS011;2501;51.214;6.768;2024-03-29T11:51:01;3.15;;;1.45;;
4971;SDS011;2501;51.214;6.768;2024-03-29T11:53:28;2.22;;;1.40;;
4971;SDS011;2501;51.214;6.768;2024-03-29T11:55:55;1.30;;;1.20;;
4971;SDS011;2501;51.214;6.768;2024-03-29T11:58:21;2.15;;;1.30;;
4971;SDS011;2501;51.214;6.768;2024-03-29T12:00:48;3.47;;;1.50;;
4971;SDS011;2501;51.214;6.768;2024-03-29T12:03:14;1.35;;;0.90;;
4971;SDS011;2501;51.214;6.768;2024-03-29T12:05:44;1.60;;;1.45;;
4971;SDS011;2501;51.214;6.768;2024-03-29T12:08:09;3.10;;;1.00;;
4971;SDS011;2501;51.214;6.768;2024-03-29T12:10:36;3.10;;;1.20;;
4971;SDS011;2501;51.214;6.768;2024-03-29T12:13:02;1.10;;;0.90;;
4971;SDS011;2501;51.214;6.768;2024-03-29T12:15:28;3.72;;;1.20;;
4971;SDS011;2501;51.214;6.768;2024-03-29T12:17:54;3.05;;;1.45;;
4971;SDS011;2501;51.214;6.768;2024-03-29T12:20:20;4.63;;;1.63;;
4971;SDS011;2501;51.214;6.768;2024-03-29T12:22:49;5.97;;;2.00;;
4971;SDS011;2501;51.214;6.768;2024-03-29T12:25:15;6.10;;;1.30;;
4971;SDS011;2501;51.214;6.768;2024-03-29T12:27:42;3.75;;;2.33;;
4971;SDS011;2501;51.214;6.768;2024-03-29T12:30:08;1.30;;;1.10;;
4971;SDS011;2501;51.214;6.768;2024-03-29T12:32:35;4.53;;;1.50;;
4971;SDS011;2501;51.214;6.768;2024-03-29T12:35:07;5.40;;;1.60;;
4971;SDS011;2501;51.214;6.768;2024-03-29T12:37:33;1.70;;;1.35;;
4971;SDS011;2501;51.214;6.768;2024-03-29T12:40:02;2.30;;;1.60;;
4971;SDS011;2501;51.214;6.768;2024-03-29T12:42:30;7.30;;;1.93;;
4971;SDS011;2501;51.214;6.768;2024-03-29T12:44:56;1.23;;;1.00;;
4971;SDS011;2501;51.214;6.768;2024-03-29T12:47:22;4.10;;;1.70;;
4971;SDS011;2501;51.214;6.768;2024-03-29T12:49:48;1.75;;;1.27;;
4971;SDS011;2501;51.214;6.768;2024-03-29T12:52:14;6.27;;;2.23;;
4971;SDS011;2501;51.214;6.768;2024-03-29T12:54:40;2.50;;;1.88;;
4971;SDS011;2501;51.214;6.768;2024-03-29T12:57:08;5.50;;;2.50;;
4971;SDS011;2501;51.214;6.768;2024-03-29T12:59:34;10.98;;;4.50;;
4971;SDS011;2501;51.214;6.768;2024-03-29T13:02:00;3.33;;;1.40;;
4971;SDS011;2501;51.214;6.768;2024-03-29T13:04:26;2.33;;;0.77;;
4971;SDS011;2501;51.214;6.768;2024-03-29T13:06:51;1.20;;;0.90;;
4971;SDS011;2501;51.214;6.768;2024-03-29T13:09:17;1.20;;;1.10;;
4971;SDS011;2501;51.214;6.768;2024-03-29T13:11:43;1.60;;;1.20;;
4971;SDS011;2501;51.214;6.768;2024-03-29T13:14:11;1.20;;;1.00;;
4971;SDS011;2501;51.214;6.768;2024-03-29T13:16:37;1.20;;;1.10;;
4971;SDS011;2501;51.214;6.768;2024-03-29T13:19:03;2.30;;;1.40;;
4971;SDS011;2501;51.214;6.768;2024-03-29T13:21:29;0.90;;;0.80;;
4971;SDS011;2501;51.214;6.768;2024-03-29T13:23:55;1.70;;;0.90;;
4971;SDS011;2501;51.214;6.768;2024-03-29T13:26:21;1.20;;;0.90;;
4971;SDS011;2501;51.214;6.768;2024-03-29T13:28:47;2.58;;;0.90;;
4971;SDS011;2501;51.214;6.768;2024-03-29T13:31:15;3.05;;;1.80;;
4971;SDS011;2501;51.214;6.768;2024-03-29T13:33:41;1.30;;;1.00;;
4971;SDS011;2501;51.214;6.768;2024-03-29T13:36:07;2.23;;;1.40;;
4971;SDS011;2501;51.214;6.768;2024-03-29T13:38:33;1.00;;;0.90;;
4971;SDS011;2501;51.214;6.768;2024-03-29T13:40:59;2.47;;;1.00;;
4971;SDS011;2501;51.214;6.768;2024-03-29T13:43:25;0.90;;;0.70;;
4971;SDS011;2501;51.214;6.768;2024-03-29T13:45:52;1.70;;;1.10;;
4971;SDS011;2501;51.214;6.768;2024-03-29T13:48:21;2.17;;;2.08;;
4971;SDS011;2501;51.214;6.768;2024-03-29T13:50:47;0.98;;;0.80;;
4971;SDS011;2501;51.214;6.768;2024-03-29T13:53:13;4.53;;;2.00;;
4971;SDS011;2501;51.214;6.768;2024-03-29T13:55:38;3.60;;;1.90;;
4971;SDS011;2501;51.214;6.768;2024-03-29T13:58:04;3.00;;;1.00;;
4971;SDS011;2501;51.214;6.768;2024-03-29T14:00:30;2.30;;;1.30;;
4971;SDS011;2501;51.214;6.768;2024-03-29T14:02:56;2.30;;;1.40;;
4971;SDS011;2501;51.214;6.768;2024-03-29T14:05:24;1.30;;;1.20;;
4971;SDS011;2501;51.214;6.768;2024-03-29T14:07:50;2.80;;;1.50;;
4971;SDS011;2501;51.214;6.768;2024-03-29T14:10:16;0.80;;;0.70;;
4971;SDS011;2501;51.214;6.768;2024-03-29T14:12:42;1.00;;;0.77;;
4971;SDS011;2501;51.214;6.768;2024-03-29T14:15:08;3.55;;;1.23;;
4971;SDS011;2501;51.214;6.768;2024-03-29T14:17:34;0.75;;;0.75;;
4971;SDS011;2501;51.214;6.768;2024-03-29T14:20:00;0.80;;;0.80;;
4971;SDS011;2501;51.214;6.768;2024-03-29T14:22:29;0.80;;;0.70;;
4971;SDS011;2501;51.214;6.768;2024-03-29T14:24:55;1.40;;;1.10;;
4971;SDS011;2501;51.214;6.768;2024-03-29T14:27:20;1.70;;;0.80;;
4971;SDS011;2501;51.214;6.768;2024-03-29T14:29:46;1.00;;;0.90;;
4971;SDS011;2501;51.214;6.768;2024-03-29T14:32:12;0.90;;;0.80;;
4971;SDS011;2501;51.214;6.768;2024-03-29T14:34:38;2.20;;;0.70;;
4971;SDS011;2501;51.214;6.768;2024-03-29T14:37:04;1.80;;;0.80;;
4971;SDS011;2501;51.214;6.768;2024-03-29T14:39:32;0.83;;;0.60;;
4971;SDS011;2501;51.214;6.768;2024-03-29T14:41:58;1.80;;;0.80;;
4971;SDS011;2501;51.214;6.768;2024-03-29T14:44:24;1.40;;;0.60;;
4971;SDS011;2501;51.214;6.768;2024-03-29T14:46:49;1.40;;;0.70;;
4971;SDS011;2501;51.214;6.768;2024-03-29T14:49:15;3.70;;;0.70;;
4971;SDS011;2501;51.214;6.768;2024-03-29T14:51:42;0.60;;;0.60;;
4971;SDS011;2501;51.214;6.768;2024-03-29T14:54:08;3.20;;;0.90;;
4971;SDS011;2501;51.214;6.768;2024-03-29T14:56:37;1.73;;;1.57;;
4971;SDS011;2501;51.214;6.768;2024-03-29T14:59:03;1.17;;;0.60;;
4971;SDS011;2501;51.214;6.768;2024-03-29T15:01:30;3.53;;;0.80;;
4971;SDS011;2501;51.214;6.768;2024-03-29T15:03:56;1.00;;;0.70;;
4971;SDS011;2501;51.214;6.768;2024-03-29T15:06:22;3.67;;;0.80;;
4971;SDS011;2501;51.214;6.768;2024-03-29T15:08:48;1.10;;;0.70;;
4971;SDS011;2501;51.214;6.768;2024-03-29T15:11:14;1.50;;;0.70;;